Time;durP1;ratioP1;P1;durP2;ratioP2;P2;SDS_P1;SDS_P2;PMS_P1;PMS_P2;Temp;Humidity;BMP_temperature;BMP_pressure;BME280_temperature;BME280_humidity;BME280_pressure;Samples;Min_cycle;Max_cycle;Signal;HPM_P1;HPM_P2
2021/08/29 00:00:44;;;;;;;6.53;5.93;;;;;;;14.58;76.96;96771.75;4996835;28;20054;-80
2021/08/29 00:03:12;;;;;;;6.82;5.88;;;;;;;14.61;77.29;96766.09;4997080;28;20463;-81
2021/08/29 00:05:41;;;;;;;7.60;5.63;;;;;;;14.62;76.18;96769.53;4996961;28;20058;-81
2021/08/29 00:08:08;;;;;;;6.70;5.57;;;;;;;14.63;76.38;96769.31;4997090;28;20046;-81
2021/08/29 00:10:36;;;;;;;7.72;5.80;;;;;;;14.65;76.51;96765.69;4996844;28;20057;-81
2021/08/29 00:13:03;;;;;;;7.95;6.57;;;;;;;14.64;75.68;96764.88;4996815;28;20057;-81
2021/08/29 00:15:31;;;;;;;8.02;6.65;;;;;;;14.63;74.99;96768.53;4997355;28;20051;-81
2021/08/29 00:17:58;;;;;;;6.82;5.90;;;;;;;14.63;75.60;96763.28;4997993;28;20529;-81
2021/08/29 00:20:26;;;;;;;6.47;5.47;;;;;;;14.63;76.35;96752.78;5002930;28;20410;-81
2021/08/29 00:22:55;;;;;;;6.72;5.63;;;;;;;14.62;76.25;96754.56;4999744;28;20054;-80
2021/08/29 00:25:23;;;;;;;6.35;5.63;;;;;;;14.62;75.33;96754.56;4999218;28;20089;-81
2021/08/29 00:27:50;;;;;;;9.27;6.18;;;;;;;14.62;75.63;96754.56;4997993;28;20050;-81
2021/08/29 00:30:18;;;;;;;8.07;5.93;;;;;;;14.62;75.53;96751.16;4997024;28;20512;-81
2021/08/29 00:32:45;;;;;;;8.15;6.32;;;;;;;14.62;75.90;96746.69;4995384;28;20057;-81
2021/08/29 00:35:13;;;;;;;8.93;6.40;;;;;;;14.62;75.62;96743.25;4996648;28;20421;-81
2021/08/29 00:37:40;;;;;;;6.72;6.03;;;;;;;14.61;75.55;96749.53;4996419;28;20057;-81
2021/08/29 00:40:11;;;;;;;8.88;7.18;;;;;;;14.59;74.75;96749.72;4996298;28;20069;-81
2021/08/29 00:42:38;;;;;;;7.68;6.32;;;;;;;14.59;75.10;96749.72;4996228;28;20517;-81
2021/08/29 00:45:07;;;;;;;8.57;6.80;;;;;;;14.60;75.14;96742.66;4996335;28;20418;-81
2021/08/29 00:47:35;;;;;;;9.43;6.25;;;;;;;14.60;75.05;96740.84;4996052;28;20077;-81
2021/08/29 00:50:04;;;;;;;7.13;6.13;;;;;;;14.60;75.58;96743.47;4996137;28;20054;-81
2021/08/29 00:52:31;;;;;;;7.85;6.60;;;;;;;14.60;76.07;96738.22;4995847;28;20057;-81
2021/08/29 00:55:00;;;;;;;8.25;6.70;;;;;;;14.62;75.94;96736.19;4995814;28;20054;-81
2021/08/29 00:57:29;;;;;;;8.38;6.65;;;;;;;14.62;75.77;96730.13;4995912;28;20058;-81
2021/08/29 00:59:56;;;;;;;7.47;6.25;;;;;;;14.61;75.98;96728.53;4995865;28;20050;-81
2021/08/29 01:02:26;;;;;;;9.85;7.43;;;;;;;14.61;75.41;96725.91;4995710;28;20053;-81
2021/08/29 01:05:03;;;;;;;9.82;7.43;;;;;;;14.62;75.75;96725.69;4995485;28;20149;-81
2021/08/29 01:07:35;;;;;;;10.10;7.13;;;;;;;14.63;76.34;96726.53;4995824;28;20058;-81
2021/08/29 01:10:07;;;;;;;8.75;6.80;;;;;;;14.62;75.92;96724.88;4995943;28;20430;-81
2021/08/29 01:12:38;;;;;;;10.20;6.93;;;;;;;14.60;75.28;96729.53;4995574;28;20434;-81
2021/08/29 01:15:07;;;;;;;8.48;6.90;;;;;;;14.58;75.80;96723.69;4995938;28;20054;-81
2021/08/29 01:17:37;;;;;;;11.07;8.52;;;;;;;14.57;74.93;96722.06;4995431;28;20058;-81
2021/08/29 01:20:14;;;;;;;10.38;7.40;;;;;;;14.58;75.88;96723.69;5001217;28;20070;-81
2021/08/29 01:22:43;;;;;;;11.90;7.75;;;;;;;14.59;75.84;96725.31;5003678;28;20046;-81
2021/08/29 01:25:14;;;;;;;11.10;6.88;;;;;;;14.59;75.65;96715.59;5003646;28;20058;-80
2021/08/29 01:27:50;;;;;;;7.85;6.57;;;;;;;14.60;75.20;96724.28;5003905;28;20046;-81
2021/08/29 01:30:20;;;;;;;9.45;7.07;;;;;;;14.59;75.64;96720.84;5004358;28;20118;-80
2021/08/29 01:32:48;;;;;;;10.13;7.00;;;;;;;14.59;75.38;96720.06;5004744;28;20058;-81
2021/08/29 01:35:16;;;;;;;9.63;7.13;;;;;;;14.59;75.32;96717.44;5004771;28;20050;-81
2021/08/29 01:37:45;;;;;;;7.32;6.25;;;;;;;14.59;75.97;96725.31;5006901;28;20058;-81
2021/08/29 01:40:13;;;;;;;9.82;6.93;;;;;;;14.59;76.08;96725.31;4999100;28;20425;-81
2021/08/29 01:42:42;;;;;;;8.93;7.65;;;;;;;14.60;75.71;96721.66;5000712;28;20073;-80
2021/08/29 01:45:11;;;;;;;10.25;7.63;;;;;;;14.60;75.74;96721.66;5006312;28;20054;-80
2021/08/29 01:47:40;;;;;;;12.07;7.40;;;;;;;14.59;76.30;96718.22;5007041;28;20058;-81
2021/08/29 01:50:08;;;;;;;9.13;7.28;;;;;;;14.60;76.60;96717.22;5005712;28;20094;-81
2021/08/29 01:52:36;;;;;;;8.65;7.10;;;;;;;14.62;76.31;96722.25;4995847;28;20057;-81
2021/08/29 01:55:04;;;;;;;7.88;6.45;;;;;;;14.62;76.02;96719.63;4995725;28;20517;-80
2021/08/29 01:57:31;;;;;;;8.30;6.78;;;;;;;14.60;76.33;96722.47;4994641;28;20520;-80
2021/08/29 01:59:59;;;;;;;8.18;6.85;;;;;;;14.59;75.76;96725.31;4995044;28;20046;-80
2021/08/29 02:02:26;;;;;;;8.68;7.18;;;;;;;14.60;76.21;96717.22;4995871;28;20058;-81
2021/08/29 02:04:56;;;;;;;8.52;7.05;;;;;;;14.60;76.39;96722.47;4995100;28;20050;-81
2021/08/29 02:07:26;;;;;;;8.98;7.07;;;;;;;14.60;76.91;96716.41;4994597;28;20452;-81
2021/08/29 02:10:00;;;;;;;8.52;7.30;;;;;;;14.61;76.63;96723.28;4994201;28;20054;-81
2021/08/29 02:12:32;;;;;;;9.90;7.63;;;;;;;14.61;76.54;96718.03;4994109;28;20061;-81
2021/08/29 02:15:04;;;;;;;8.73;7.35;;;;;;;14.59;76.26;96720.06;4994398;28;20047;-81
2021/08/29 02:17:32;;;;;;;8.63;7.32;;;;;;;14.60;77.02;96711.16;4994602;28;20063;-81
2021/08/29 02:20:06;;;;;;;8.95;7.45;;;;;;;14.61;77.34;96710.16;4994689;28;20061;-81
2021/08/29 02:22:34;;;;;;;10.13;7.65;;;;;;;14.60;76.47;96719.84;4994080;28;20422;-80
2021/08/29 02:25:04;;;;;;;8.55;7.65;;;;;;;14.60;76.97;96719.03;4994371;28;20050;-81
2021/08/29 02:27:33;;;;;;;9.20;7.90;;;;;;;14.57;76.91;96711.59;4995354;28;20069;-80
2021/08/29 02:30:02;;;;;;;10.13;7.47;;;;;;;14.57;76.83;96716.81;5002580;28;20056;-81
2021/08/29 02:32:29;;;;;;;9.68;8.35;;;;;;;14.54;76.74;96717.19;5002659;28;20060;-81
2021/08/29 02:34:57;;;;;;;8.75;7.85;;;;;;;14.54;77.14;96717.19;5001479;28;20050;-81
2021/08/29 02:37:27;;;;;;;9.25;6.90;;;;;;;14.54;77.42;96717.19;5001969;28;20061;-81
2021/08/29 02:39:57;;;;;;;8.63;7.72;;;;;;;14.52;76.70;96719.22;5003467;28;20540;-80
2021/08/29 02:42:27;;;;;;;9.48;7.40;;;;;;;14.51;77.21;96718.41;5003136;28;20050;-81
2021/08/29 02:44:55;;;;;;;8.75;7.82;;;;;;;14.52;77.42;96719.22;5002760;28;20062;-81
2021/08/29 02:47:24;;;;;;;9.02;7.68;;;;;;;14.53;77.50;96718.22;5002388;28;20061;-81
2021/08/29 02:49:53;;;;;;;8.18;7.30;;;;;;;14.55;77.31;96714.41;5000884;28;20057;-81
2021/08/29 02:52:21;;;;;;;9.15;7.88;;;;;;;14.54;77.35;96710.16;4994302;28;20085;-80
2021/08/29 02:54:51;;;;;;;12.02;7.72;;;;;;;14.55;77.92;96708.34;4993945;28;20050;-81
2021/08/29 02:57:21;;;;;;;10.48;8.68;;;;;;;14.55;77.33;96700.47;4993902;28;20077;-81
2021/08/29 02:59:49;;;;;;;8.82;7.60;;;;;;;14.53;77.77;96702.47;4993881;28;20042;-81
2021/08/29 03:02:17;;;;;;;10.98;7.93;;;;;;;14.52;77.50;96700.84;5001549;28;20050;-81
2021/08/29 03:04:45;;;;;;;9.65;7.60;;;;;;;14.50;77.79;96705.50;5004104;28;20054;-81
2021/08/29 03:07:13;;;;;;;10.20;7.45;;;;;;;14.51;77.62;96707.91;5007699;28;20050;-80
2021/08/29 03:09:41;;;;;;;7.60;6.68;;;;;;;14.52;77.84;96701.66;5003154;28;20058;-80
2021/08/29 03:12:12;;;;;;;10.38;8.13;;;;;;;14.51;76.95;96697.41;4995113;28;20058;-81
2021/08/29 03:14:41;;;;;;;9.00;7.63;;;;;;;14.50;77.54;96692.38;4995608;28;20050;-81
2021/08/29 03:17:09;;;;;;;10.73;7.80;;;;;;;14.49;77.76;96690.75;4994467;28;20233;-81
2021/08/29 03:19:38;;;;;;;8.60;7.03;;;;;;;14.48;77.53;96689.16;4993496;28;20058;-81
2021/08/29 03:22:07;;;;;;;7.30;6.57;;;;;;;14.48;78.20;96686.53;4993879;28;20058;-81
2021/08/29 03:24:34;;;;;;;8.20;6.72;;;;;;;14.47;77.76;96685.69;4993612;28;20054;-81
2021/08/29 03:27:02;;;;;;;8.25;6.90;;;;;;;14.49;78.38;96680.25;4993671;28;20054;-81
2021/08/29 03:29:31;;;;;;;7.43;6.40;;;;;;;14.50;78.42;96676.63;4993521;28;20061;-81
2021/08/29 03:31:59;;;;;;;8.35;7.03;;;;;;;14.51;78.02;96676.41;4993497;28;20066;-80
2021/08/29 03:34:29;;;;;;;8.38;6.60;;;;;;;14.53;78.00;96678.84;4993435;28;20054;-80
2021/08/29 03:36:57;;;;;;;12.80;7.15;;;;;;;14.51;77.95;96676.41;4993308;28;20510;-81
2021/08/29 03:39:27;;;;;;;6.75;6.05;;;;;;;14.51;77.96;96676.41;4993657;28;20053;-81
2021/08/29 03:41:57;;;;;;;8.15;6.65;;;;;;;14.52;78.07;96677.22;4993713;28;20058;-81
2021/08/29 03:44:26;;;;;;;7.05;6.32;;;;;;;14.54;78.02;96688.31;4993909;28;20050;-81
2021/08/29 03:46:55;;;;;;;8.27;6.72;;;;;;;14.53;78.03;96682.25;4993906;28;20050;-80
2021/08/29 03:49:25;;;;;;;8.63;6.43;;;;;;;14.54;77.86;96680.44;4993783;28;20062;-81
2021/08/29 03:51:55;;;;;;;10.07;7.13;;;;;;;14.53;77.29;96682.25;4993714;28;20051;-81
2021/08/29 03:54:23;;;;;;;7.40;6.40;;;;;;;14.51;77.47;96680.84;4992905;28;20047;-81
2021/08/29 03:56:51;;;;;;;6.85;5.88;;;;;;;14.51;78.25;96681.66;4993294;28;20046;-81
2021/08/29 03:59:19;;;;;;;8.50;6.32;;;;;;;14.52;78.18;96682.47;4993706;28;20057;-81
2021/08/29 04:01:47;;;;;;;7.60;6.50;;;;;;;14.51;77.50;96686.09;4993784;28;20431;-81
2021/08/29 04:04:16;;;;;;;7.00;5.95;;;;;;;14.51;78.31;96675.59;4993737;28;20085;-81
2021/08/29 04:06:47;;;;;;;7.32;6.40;;;;;;;14.52;77.89;96682.47;4997871;28;20030;-79
2021/08/29 04:09:19;;;;;;;9.23;7.20;;;;;;;14.51;78.06;96675.59;5019621;28;20038;-80
2021/08/29 04:11:49;;;;;;;8.30;6.70;;;;;;;14.48;77.08;96681.28;5020212;28;20054;-80
2021/08/29 04:14:16;;;;;;;7.93;6.38;;;;;;;14.49;78.57;96672.38;5019776;28;20034;-80
2021/08/29 04:16:45;;;;;;;6.32;5.68;;;;;;;14.50;77.74;96671.38;5012781;28;20053;-80
2021/08/29 04:19:14;;;;;;;8.65;6.97;;;;;;;14.50;78.47;96671.38;4997773;28;20047;-80
2021/08/29 04:21:43;;;;;;;9.50;7.20;;;;;;;14.52;78.64;96671.97;4997303;28;20057;-80
2021/08/29 04:24:11;;;;;;;9.20;7.03;;;;;;;14.52;78.10;96666.72;4996799;28;20506;-81
2021/08/29 04:26:39;;;;;;;7.55;6.35;;;;;;;14.51;78.54;96671.16;4996999;28;20054;-81
2021/08/29 04:29:07;;;;;;;7.20;6.47;;;;;;;14.52;78.40;96662.28;4996753;28;20057;-81
2021/08/29 04:31:35;;;;;;;6.30;5.43;;;;;;;14.52;78.57;96662.28;4996672;28;20057;-81
2021/08/29 04:34:05;;;;;;;7.68;5.90;;;;;;;14.53;78.60;96668.34;4996495;28;20057;-80
2021/08/29 04:36:35;;;;;;;6.53;5.70;;;;;;;14.53;78.55;96663.88;4996447;28;20050;-81
2021/08/29 04:39:07;;;;;;;6.22;5.63;;;;;;;14.54;78.47;96662.06;4996547;28;20058;-81
2021/08/29 04:41:36;;;;;;;9.70;5.93;;;;;;;14.54;78.44;96670.78;4996337;28;20046;-81
2021/08/29 04:44:04;;;;;;;6.43;5.43;;;;;;;14.54;78.54;96659.44;4996242;28;20058;-81
2021/08/29 04:46:32;;;;;;;5.80;5.18;;;;;;;14.54;78.12;96659.44;4996076;28;20058;-81
2021/08/29 04:49:00;;;;;;;6.05;5.00;;;;;;;14.54;78.47;96651.56;4996409;28;20137;-81
2021/08/29 04:51:27;;;;;;;6.63;5.43;;;;;;;14.52;77.66;96650.97;4996130;28;20050;-81
2021/08/29 04:53:55;;;;;;;7.38;5.53;;;;;;;14.53;78.02;96652.59;4995706;28;20502;-81
2021/08/29 04:56:23;;;;;;;6.45;5.60;;;;;;;14.53;78.30;96652.59;4996094;28;20315;-81
2021/08/29 04:58:51;;;;;;;6.30;5.10;;;;;;;14.53;77.94;96657.84;4995760;28;20054;-81
2021/08/29 05:01:20;;;;;;;8.57;5.88;;;;;;;14.50;78.05;96663.50;4995924;28;20054;-81
2021/08/29 05:03:48;;;;;;;8.05;5.88;;;;;;;14.51;78.29;96654.63;4995393;28;20435;-81
2021/08/29 05:06:15;;;;;;;4.82;4.32;;;;;;;14.48;77.69;96660.28;4995686;28;20058;-81
2021/08/29 05:08:43;;;;;;;5.72;4.63;;;;;;;14.47;78.29;96661.28;4995637;28;20050;-81
2021/08/29 05:11:10;;;;;;;5.18;4.68;;;;;;;14.42;77.29;96665.31;4995288;28;20050;-81
2021/08/29 05:13:39;;;;;;;4.18;3.78;;;;;;;14.43;78.57;96660.91;4994967;28;20054;-81
2021/08/29 05:16:07;;;;;;;3.70;3.40;;;;;;;14.40;77.92;96662.09;4995923;28;20556;-80
2021/08/29 05:18:34;;;;;;;7.15;5.45;;;;;;;14.40;78.44;96669.97;4995607;28;20130;-80
2021/08/29 05:21:02;;;;;;;5.25;4.50;;;;;;;14.42;78.60;96662.69;4995422;28;20050;-81
2021/08/29 05:23:33;;;;;;;4.75;4.20;;;;;;;14.45;78.79;96660.66;4995023;28;20050;-80
2021/08/29 05:26:00;;;;;;;6.28;4.28;;;;;;;14.47;78.46;96663.91;4994936;28;20454;-81
2021/08/29 05:28:28;;;;;;;7.43;5.30;;;;;;;14.46;78.38;96652.59;4995339;28;20050;-81
2021/08/29 05:30:57;;;;;;;6.57;4.45;;;;;;;14.46;78.90;96655.22;4995308;28;20058;-80
2021/08/29 05:33:24;;;;;;;7.13;3.95;;;;;;;14.46;78.53;96655.22;4994676;28;20042;-81
2021/08/29 05:35:52;;;;;;;9.43;5.10;;;;;;;14.45;78.87;96648.34;4994774;28;20502;-81
2021/08/29 05:38:19;;;;;;;3.80;3.50;;;;;;;14.45;78.74;96655.41;4994448;28;20053;-81
2021/08/29 05:40:47;;;;;;;3.70;3.30;;;;;;;14.47;78.68;96648.97;4994947;28;20061;-81
2021/08/29 05:43:14;;;;;;;4.22;3.40;;;;;;;14.48;78.28;96652.41;4994527;28;20054;-81
2021/08/29 05:45:42;;;;;;;4.00;3.00;;;;;;;14.48;78.66;96653.22;4994763;28;20046;-81
2021/08/29 05:48:11;;;;;;;4.43;3.22;;;;;;;14.48;78.01;96645.34;4994551;28;20062;-81
2021/08/29 05:50:38;;;;;;;4.40;2.72;;;;;;;14.48;78.39;96647.16;4995003;28;20457;-81
2021/08/29 05:53:06;;;;;;;3.30;2.70;;;;;;;14.51;78.42;96649.38;4994356;28;20054;-81
2021/08/29 05:55:33;;;;;;;2.92;2.63;;;;;;;14.49;77.39;96646.13;4994830;28;20062;-80
2021/08/29 05:58:01;;;;;;;3.10;2.72;;;;;;;14.47;77.30;96648.97;4994230;28;20050;-81
2021/08/29 06:00:28;;;;;;;2.40;2.20;;;;;;;14.48;77.93;96645.34;4994664;28;20057;-81
2021/08/29 06:02:56;;;;;;;4.07;2.92;;;;;;;14.50;77.98;96647.75;4994246;28;20054;-81
2021/08/29 06:05:27;;;;;;;3.95;3.17;;;;;;;14.47;77.41;96648.16;4994252;28;20157;-81
2021/08/29 06:07:55;;;;;;;3.53;2.95;;;;;;;14.46;77.42;96651.81;4994357;28;20070;-81
2021/08/29 06:10:22;;;;;;;3.63;2.88;;;;;;;14.46;77.90;96641.31;4994380;28;20395;-81
2021/08/29 06:12:50;;;;;;;3.85;3.03;;;;;;;14.48;78.07;96639.28;4994167;28;20062;-80
2021/08/29 06:15:17;;;;;;;3.78;3.05;;;;;;;14.48;78.20;96636.66;4994205;28;20054;-81
2021/08/29 06:17:45;;;;;;;3.28;2.75;;;;;;;14.48;77.76;96631.41;4993898;28;20057;-80
2021/08/29 06:20:13;;;;;;;2.95;2.60;;;;;;;14.49;77.96;96635.63;4994119;28;20063;-81
2021/08/29 06:22:42;;;;;;;3.10;2.25;;;;;;;14.48;77.00;96634.03;4993825;28;20073;-81
2021/08/29 06:25:10;;;;;;;6.90;3.78;;;;;;;14.47;77.74;96635.03;4993544;28;20502;-81
2021/08/29 06:27:37;;;;;;;2.30;2.10;;;;;;;14.46;78.06;96641.31;4994142;28;20049;-81
2021/08/29 06:30:06;;;;;;;3.03;2.72;;;;;;;14.43;77.72;96632.81;4993165;28;20054;-81
2021/08/29 06:32:34;;;;;;;2.97;2.67;;;;;;;14.46;78.11;96633.44;4993660;28;20133;-81
2021/08/29 06:35:01;;;;;;;2.53;2.20;;;;;;;14.46;77.73;96623.72;4993945;28;20116;-81
2021/08/29 06:37:29;;;;;;;3.13;2.40;;;;;;;14.47;77.60;96632.41;4993854;28;20050;-81
2021/08/29 06:39:58;;;;;;;1.88;1.77;;;;;;;14.47;78.04;96633.22;4993937;28;20058;-80
2021/08/29 06:42:25;;;;;;;2.33;2.13;;;;;;;14.49;78.06;96635.63;4993525;28;20050;-81
2021/08/29 06:44:53;;;;;;;2.55;2.35;;;;;;;14.47;77.73;96638.47;4993577;28;20529;-81
2021/08/29 06:47:20;;;;;;;3.08;2.35;;;;;;;14.48;77.60;96644.53;4993753;28;20530;-81
2021/08/29 06:49:48;;;;;;;2.40;2.20;;;;;;;14.49;77.63;96640.88;4993670;28;20050;-81
2021/08/29 06:52:15;;;;;;;11.13;7.28;;;;;;;14.50;77.74;96645.13;4993817;28;20529;-80
2021/08/29 06:54:43;;;;;;;21.55;15.13;;;;;;;14.49;77.14;96635.63;4994317;28;20061;-80
2021/08/29 06:57:12;;;;;;;4.47;3.53;;;;;;;14.51;77.28;96638.88;4993835;28;20429;-81
2021/08/29 06:59:39;;;;;;;6.15;4.10;;;;;;;14.52;77.67;96636.03;4993785;28;20498;-81
2021/08/29 07:02:07;;;;;;;2.47;2.28;;;;;;;14.52;77.35;96640.47;4993775;28;20053;-80
2021/08/29 07:04:35;;;;;;;2.50;2.30;;;;;;;14.52;77.16;96640.47;4993120;28;20060;-81
2021/08/29 07:07:03;;;;;;;3.00;2.35;;;;;;;14.53;77.67;96637.63;4993134;28;20073;-81
2021/08/29 07:09:31;;;;;;;7.70;5.03;;;;;;;14.54;76.74;96638.44;4993205;28;20053;-81
2021/08/29 07:11:58;;;;;;;25.50;17.30;;;;;;;14.53;77.13;96635.00;4993113;28;20050;-81
2021/08/29 07:14:27;;;;;;;16.05;11.93;;;;;;;14.55;77.71;96640.09;4993103;28;20051;-81
2021/08/29 07:16:54;;;;;;;3.10;2.88;;;;;;;14.55;76.51;96643.53;4993604;28;20057;-80
2021/08/29 07:19:22;;;;;;;2.95;1.88;;;;;;;14.57;76.48;96651.19;4993336;28;20051;-81
2021/08/29 07:21:49;;;;;;;2.58;2.30;;;;;;;14.60;76.28;96645.53;4993313;28;20418;-80
2021/08/29 07:24:17;;;;;;;2.97;2.58;;;;;;;14.62;77.14;96651.38;4993088;28;20050;-80
2021/08/29 07:26:45;;;;;;;3.88;2.35;;;;;;;14.66;76.98;96654.41;4993518;28;20050;-81
2021/08/29 07:29:12;;;;;;;2.13;1.95;;;;;;;14.67;76.58;96648.97;4993795;28;20057;-81
2021/08/29 07:31:41;;;;;;;3.35;2.28;;;;;;;14.70;76.83;96653.78;4993378;28;20081;-80
2021/08/29 07:34:08;;;;;;;9.90;7.57;;;;;;;14.73;77.01;96649.94;4993381;28;20445;-81
2021/08/29 07:36:36;;;;;;;19.58;13.68;;;;;;;14.74;76.73;96652.38;4993754;28;20426;-81
2021/08/29 07:39:03;;;;;;;3.42;3.03;;;;;;;14.76;76.44;96652.97;4993578;28;20042;-81
2021/08/29 07:41:31;;;;;;;2.95;2.35;;;;;;;14.77;76.40;96644.06;4993449;28;20054;-81
2021/08/29 07:43:58;;;;;;;2.55;2.35;;;;;;;14.81;76.20;96655.78;5001096;28;20050;-80
2021/08/29 07:46:28;;;;;;;2.63;2.42;;;;;;;14.83;76.37;96659.00;5007831;28;20054;-81
2021/08/29 07:48:57;;;;;;;3.60;2.78;;;;;;;14.87;76.23;96658.56;5007363;28;20050;-80
2021/08/29 07:51:25;;;;;;;2.47;2.28;;;;;;;14.90;76.41;96660.81;5002745;28;20057;-81
2021/08/29 07:53:52;;;;;;;2.40;2.20;;;;;;;14.90;75.59;96653.72;4997073;28;20054;-81
2021/08/29 07:56:19;;;;;;;2.30;2.08;;;;;;;14.91;76.13;96657.16;4997334;28;20304;-81
2021/08/29 07:58:47;;;;;;;2.60;2.40;;;;;;;14.91;75.86;96659.78;4997139;28;20054;-81
2021/08/29 08:01:14;;;;;;;3.95;2.83;;;;;;;14.92;76.49;96666.66;4997442;28;20057;-81
2021/08/29 08:03:42;;;;;;;3.70;3.35;;;;;;;14.93;76.52;96663.00;4996503;28;20142;-81
2021/08/29 08:06:11;;;;;;;3.55;3.25;;;;;;;14.94;75.86;96660.19;4996826;28;20054;-81
2021/08/29 08:08:40;;;;;;;2.67;2.45;;;;;;;14.94;75.85;96659.38;4996451;28;20046;-81
2021/08/29 08:11:08;;;;;;;5.13;3.33;;;;;;;14.93;76.10;96653.28;4996667;28;20058;-81
2021/08/29 08:13:35;;;;;;;3.70;3.08;;;;;;;14.95;76.51;96659.16;4996116;28;20054;-81
2021/08/29 08:16:03;;;;;;;3.50;3.20;;;;;;;14.98;75.60;96657.97;4996923;28;20082;-81
2021/08/29 08:18:31;;;;;;;3.08;2.78;;;;;;;15.01;75.95;96665.41;4998566;28;20046;-80
2021/08/29 08:20:58;;;;;;;3.88;3.05;;;;;;;15.03;76.10;96664.19;4996107;28;20069;-81
2021/08/29 08:23:27;;;;;;;5.57;3.67;;;;;;;15.04;75.84;96660.56;4996677;28;20054;-81
2021/08/29 08:25:55;;;;;;;3.28;2.97;;;;;;;15.07;76.13;96661.94;4996421;28;20051;-81
2021/08/29 08:28:22;;;;;;;4.10;3.70;;;;;;;15.10;75.90;96652.84;4996563;28;20046;-80
2021/08/29 08:30:50;;;;;;;4.80;3.35;;;;;;;15.13;76.28;96660.28;4996434;28;20062;-81
2021/08/29 08:33:18;;;;;;;3.67;3.35;;;;;;;15.15;75.84;96656.47;4996028;28;20522;-81
2021/08/29 08:35:45;;;;;;;3.33;3.03;;;;;;;15.19;75.47;96662.91;4996173;28;20074;-81
2021/08/29 08:38:17;;;;;;;3.22;2.92;;;;;;;15.23;75.48;96652.78;4996173;28;20121;-81
2021/08/29 08:40:46;;;;;;;3.13;2.92;;;;;;;15.27;74.50;96663.69;4995985;28;20050;-81
2021/08/29 08:43:13;;;;;;;3.25;2.97;;;;;;;15.31;74.82;96657.00;4995708;28;20061;-81
2021/08/29 08:45:41;;;;;;;4.22;3.42;;;;;;;15.34;75.00;96659.19;4995525;28;20494;-80
2021/08/29 08:48:10;;;;;;;3.83;3.00;;;;;;;15.33;74.40;96658.41;4995805;28;20054;-81
2021/08/29 08:50:38;;;;;;;4.00;2.60;;;;;;;15.35;74.00;96666.06;4995911;28;20050;-80
2021/08/29 08:53:06;;;;;;;3.40;2.92;;;;;;;15.38;74.61;96665.66;4995228;28;20061;-81
2021/08/29 08:55:34;;;;;;;3.65;2.67;;;;;;;15.41;74.25;96667.84;4995758;28;20050;-81
2021/08/29 08:58:04;;;;;;;4.68;2.22;;;;;;;15.43;73.76;96668.44;4995912;28;20134;-80
2021/08/29 09:00:32;;;;;;;2.58;2.35;;;;;;;15.41;73.77;96659.97;4995336;28;20050;-81
2021/08/29 09:03:01;;;;;;;2.17;1.73;;;;;;;15.40;73.39;96666.25;4995434;28;20046;-81
2021/08/29 09:16:20;;;;;;;1.60;1.50;;;;;;;15.34;73.37;96656.56;5111167;23;20481;-81
2021/08/29 09:18:48;;;;;;;1.43;1.33;;;;;;;15.34;73.77;96656.56;4995474;28;20057;-81
2021/08/29 09:21:19;;;;;;;1.52;1.42;;;;;;;15.34;72.78;96649.47;4995318;28;20205;-81
2021/08/29 09:23:47;;;;;;;1.23;1.13;;;;;;;15.35;73.85;96655.53;4995184;28;20481;-82
2021/08/29 09:26:16;;;;;;;1.40;1.25;;;;;;;15.36;73.27;96659.78;4994950;28;20054;-82
2021/08/29 09:28:44;;;;;;;1.23;1.13;;;;;;;15.36;72.35;96657.97;4994753;28;20061;-81
2021/08/29 09:31:11;;;;;;;1.05;0.98;;;;;;;15.38;72.70;96658.56;4995161;28;20054;-81
2021/08/29 09:33:41;;;;;;;0.93;0.93;;;;;;;15.42;72.31;96656.34;4994930;28;20089;-81
2021/08/29 09:36:10;;;;;;;0.98;0.98;;;;;;;15.47;72.21;96655.69;4994685;28;20050;-81
2021/08/29 09:38:39;;;;;;;1.23;1.13;;;;;;;15.52;72.57;96656.66;4994967;28;20426;-82
2021/08/29 09:41:23;;;;;;;1.38;1.27;;;;;;;15.56;72.28;96649.97;4994658;28;20061;-81
2021/08/29 09:43:55;;;;;;;0.77;0.77;;;;;;;15.59;71.70;96657.44;4994882;28;20050;-81
2021/08/29 09:46:22;;;;;;;3.15;1.10;;;;;;;15.59;71.37;96657.44;4994917;28;20050;-82
2021/08/29 09:48:57;;;;;;;1.58;0.93;;;;;;;15.61;71.21;96660.66;4999680;28;20054;-80
2021/08/29 09:51:27;;;;;;;0.80;0.80;;;;;;;15.66;72.53;96660.84;5011331;28;20061;-81
2021/08/29 09:53:54;;;;;;;3.45;0.90;;;;;;;15.68;72.47;96659.81;5009562;28;20518;-80
2021/08/29 09:56:24;;;;;;;0.70;0.70;;;;;;;15.70;72.17;96645.44;5010262;28;20030;-81
2021/08/29 09:58:52;;;;;;;0.65;0.63;;;;;;;15.70;72.05;96653.34;5001101;28;20057;-81
2021/08/29 10:01:24;;;;;;;1.00;0.77;;;;;;;15.72;72.59;96646.06;4995254;28;20046;-82
2021/08/29 10:03:53;;;;;;;0.65;0.65;;;;;;;15.74;72.23;96644.03;4995068;28;20057;-82
2021/08/29 10:06:24;;;;;;;0.63;0.63;;;;;;;15.74;71.67;96644.03;4993531;28;20070;-81
2021/08/29 10:08:53;;;;;;;0.60;0.60;;;;;;;15.76;71.00;96641.16;4994681;28;20073;-81
2021/08/29 10:11:22;;;;;;;0.70;0.70;;;;;;;15.76;70.42;96643.81;4994380;28;20066;-82
2021/08/29 10:13:52;;;;;;;0.93;0.80;;;;;;;15.81;71.64;96634.25;4994012;28;20058;-81
2021/08/29 10:16:22;;;;;;;0.55;0.55;;;;;;;15.91;71.79;96638.22;4994314;28;20054;-81
2021/08/29 10:18:51;;;;;;;1.63;0.73;;;;;;;16.00;70.88;96637.75;4993846;28;20054;-81
2021/08/29 10:21:23;;;;;;;0.57;0.57;;;;;;;16.13;70.46;96630.75;4993987;28;20046;-81
2021/08/29 10:23:53;;;;;;;1.53;1.30;;;;;;;16.28;71.25;96633.88;4993987;28;20061;-81
2021/08/29 10:26:23;;;;;;;4.68;3.83;;;;;;;16.43;70.72;96626.44;4994113;28;20054;-81
2021/08/29 10:28:53;;;;;;;5.90;4.88;;;;;;;16.59;71.03;96632.16;4994471;28;20421;-81
2021/08/29 10:31:29;;;;;;;2.97;2.00;;;;;;;16.68;69.27;96636.09;4994153;28;20050;-82
2021/08/29 10:33:57;;;;;;;0.70;0.68;;;;;;;16.73;68.41;96630.19;4993793;28;20502;-81
2021/08/29 10:36:25;;;;;;;0.45;0.45;;;;;;;16.79;68.45;96630.13;4993862;28;20054;-81
2021/08/29 10:38:53;;;;;;;1.40;1.30;;;;;;;16.85;67.13;96623.97;4993861;28;20054;-81
2021/08/29 10:41:22;;;;;;;1.15;1.05;;;;;;;16.93;67.62;96622.88;4993932;28;20403;-81
2021/08/29 10:43:51;;;;;;;0.50;0.50;;;;;;;17.02;66.77;96626.81;4993789;28;20049;-81
2021/08/29 10:46:19;;;;;;;0.40;0.38;;;;;;;17.05;65.84;96617.66;4993789;28;20050;-81
2021/08/29 10:48:50;;;;;;;0.50;0.50;;;;;;;17.05;66.57;96618.50;4993831;28;20422;-81
2021/08/29 10:51:20;;;;;;;0.75;0.40;;;;;;;17.06;66.28;96619.28;4993803;28;20050;-81
2021/08/29 10:53:52;;;;;;;0.60;0.57;;;;;;;17.03;64.02;96623.19;4993657;28;20052;-81
2021/08/29 10:56:32;;;;;;;0.57;0.50;;;;;;;17.02;64.76;96615.47;4993516;28;20050;-82
2021/08/29 10:59:22;;;;;;;0.85;0.60;;;;;;;17.06;64.65;96611.38;4993751;28;20340;-81
2021/08/29 11:01:51;;;;;;;0.70;0.68;;;;;;;17.09;65.37;96624.09;4993699;28;20078;-81
2021/08/29 11:04:45;;;;;;;0.50;0.50;;;;;;;17.15;67.03;96622.41;4993330;28;20092;-81
2021/08/29 11:07:12;;;;;;;0.75;0.68;;;;;;;17.16;66.53;96614.25;4993343;28;20046;-81
2021/08/29 11:09:51;;;;;;;0.60;0.60;;;;;;;17.19;65.64;96616.47;4993233;28;20053;-81
2021/08/29 11:12:33;;;;;;;0.47;0.47;;;;;;;17.22;66.32;96610.75;4993413;28;20066;-82
2021/08/29 11:15:02;;;;;;;0.80;0.65;;;;;;;17.27;65.47;96605.63;4994026;28;20046;-81
2021/08/29 11:17:32;;;;;;;0.77;0.75;;;;;;;17.29;64.56;96611.47;4995999;28;20054;-81
2021/08/29 11:20:18;;;;;;;2.45;0.90;;;;;;;17.27;63.72;96610.91;4997589;28;20053;-81
2021/08/29 11:22:47;;;;;;;0.98;0.50;;;;;;;17.29;63.71;96608.00;4997224;28;20061;-81
2021/08/29 11:25:19;;;;;;;0.40;0.40;;;;;;;17.27;63.89;96605.63;4997352;28;20061;-81
2021/08/29 11:27:58;;;;;;;0.70;0.68;;;;;;;17.30;63.82;96605.16;4997166;28;20050;-81
2021/08/29 11:30:28;;;;;;;0.55;0.55;;;;;;;17.30;64.20;96607.81;4997543;28;20046;-82
2021/08/29 11:33:04;;;;;;;1.05;0.60;;;;;;;17.28;64.60;96607.22;4997101;28;20053;-81
2021/08/29 11:35:33;;;;;;;0.47;0.47;;;;;;;17.28;64.50;96607.22;4997295;28;20062;-82
2021/08/29 11:38:04;;;;;;;0.47;0.47;;;;;;;17.29;65.39;96608.00;4996960;28;20061;-81
2021/08/29 11:40:48;;;;;;;1.00;0.40;;;;;;;17.30;66.55;96607.00;4997473;28;20402;-81
2021/08/29 11:43:23;;;;;;;0.40;0.40;;;;;;;17.28;64.97;96604.59;4996747;28;20536;-81
2021/08/29 11:45:59;;;;;;;0.35;0.30;;;;;;;17.26;64.75;96604.00;4997056;28;20058;-81
2021/08/29 11:48:27;;;;;;;2.15;0.40;;;;;;;17.24;64.73;96599.97;4997256;28;20077;-82
2021/08/29 11:50:56;;;;;;;0.73;0.47;;;;;;;17.22;64.49;96602.84;4997267;28;20473;-81